sensor_id;sensor_type;location;lat;lon;timestamp;pressure;altitude;pressure_sealevel;temperature;humidity
37238;BME280;23129;49.662;8.448;2023-06-26T00:01:30;100489.47;;;24.38;46.93
37238;BME280;23129;49.662;8.448;2023-06-26T00:04:01;100485.06;;;24.37;47.29
37238;BME280;23129;49.662;8.448;2023-06-26T00:06:30;100481.66;;;24.35;47.25
37238;BME280;23129;49.662;8.448;2023-06-26T00:08:58;100487.28;;;24.32;47.84
37238;BME280;23129;49.662;8.448;2023-06-26T00:11:27;100482.31;;;24.27;47.68
37238;BME280;23129;49.662;8.448;2023-06-26T00:13:58;100486.63;;;24.19;47.95
37238;BME280;23129;49.662;8.448;2023-06-26T00:16:27;100479.47;;;24.08;48.60
37238;BME280;23129;49.662;8.448;2023-06-26T00:18:56;100492.09;;;23.96;48.65
37238;BME280;23129;49.662;8.448;2023-06-26T00:21:27;100490.88;;;23.89;48.99
37238;BME280;23129;49.662;8.448;2023-06-26T00:23:55;100486.28;;;23.80;49.41
37238;BME280;23129;49.662;8.448;2023-06-26T00:26:24;100487.53;;;23.76;49.32
37238;BME280;23129;49.662;8.448;2023-06-26T00:28:52;100494.09;;;23.72;49.67
37238;BME280;23129;49.662;8.448;2023-06-26T00:31:21;100491.19;;;23.63;49.88
37238;BME280;23129;49.662;8.448;2023-06-26T00:33:49;100489.88;;;23.58;50.08
37238;BME280;23129;49.662;8.448;2023-06-26T00:36:18;100482.94;;;23.55;50.25
37238;BME280;23129;49.662;8.448;2023-06-26T00:38:48;100485.72;;;23.54;50.36
37238;BME280;23129;49.662;8.448;2023-06-26T00:41:17;100480.63;;;23.51;50.55
37238;BME280;23129;49.662;8.448;2023-06-26T00:43:45;100481.97;;;23.45;50.65
37238;BME280;23129;49.662;8.448;2023-06-26T00:46:14;100485.88;;;23.41;51.23
37238;BME280;23129;49.662;8.448;2023-06-26T00:48:46;100486.97;;;23.38;51.22
37238;BME280;23129;49.662;8.448;2023-06-26T00:51:14;100483.22;;;23.30;51.58
37238;BME280;23129;49.662;8.448;2023-06-26T00:53:43;100473.00;;;23.23;52.09
37238;BME280;23129;49.662;8.448;2023-06-26T00:56:14;100473.25;;;23.20;52.17
37238;BME280;23129;49.662;8.448;2023-06-26T00:58:43;100474.81;;;23.12;52.65
37238;BME280;23129;49.662;8.448;2023-06-26T01:01:13;100471.56;;;22.97;53.25
37238;BME280;23129;49.662;8.448;2023-06-26T01:03:44;100475.06;;;22.86;54.00
37238;BME280;23129;49.662;8.448;2023-06-26T01:06:14;100471.53;;;22.74;54.63
37238;BME280;23129;49.662;8.448;2023-06-26T01:08:44;100467.25;;;22.61;55.23
37238;BME280;23129;49.662;8.448;2023-06-26T01:11:15;100461.63;;;22.52;55.37
37238;BME280;23129;49.662;8.448;2023-06-26T01:13:43;100466.84;;;22.43;55.87
37238;BME280;23129;49.662;8.448;2023-06-26T01:16:13;100467.31;;;22.37;56.10
37238;BME280;23129;49.662;8.448;2023-06-26T01:18:42;100456.88;;;22.33;56.42
37238;BME280;23129;49.662;8.448;2023-06-26T01:21:14;100463.91;;;22.34;55.96
37238;BME280;23129;49.662;8.448;2023-06-26T01:23:52;100464.41;;;22.40;55.82
37238;BME280;23129;49.662;8.448;2023-06-26T01:26:29;100463.91;;;22.34;56.01
37238;BME280;23129;49.662;8.448;2023-06-26T01:28:59;100469.97;;;22.25;56.17
37238;BME280;23129;49.662;8.448;2023-06-26T01:31:30;100460.38;;;22.23;56.40
37238;BME280;23129;49.662;8.448;2023-06-26T01:34:01;100464.84;;;22.22;56.31
37238;BME280;23129;49.662;8.448;2023-06-26T01:36:31;100456.13;;;22.20;56.16
37238;BME280;23129;49.662;8.448;2023-06-26T01:39:00;100451.00;;;22.17;56.49
37238;BME280;23129;49.662;8.448;2023-06-26T01:41:30;100443.00;;;22.17;56.29
37238;BME280;23129;49.662;8.448;2023-06-26T01:44:11;100445.19;;;22.23;56.01
37238;BME280;23129;49.662;8.448;2023-06-26T01:47:00;100446.66;;;22.27;55.88
37238;BME280;23129;49.662;8.448;2023-06-26T01:49:43;100441.44;;;22.26;56.17
37238;BME280;23129;49.662;8.448;2023-06-26T01:52:19;100447.88;;;22.23;56.18
37238;BME280;23129;49.662;8.448;2023-06-26T01:55:00;100449.06;;;22.19;56.18
37238;BME280;23129;49.662;8.448;2023-06-26T01:57:32;100447.06;;;22.10;56.81
37238;BME280;23129;49.662;8.448;2023-06-26T02:00:04;100450.94;;;22.06;56.97
37238;BME280;23129;49.662;8.448;2023-06-26T02:02:41;100454.91;;;22.00;56.95
37238;BME280;23129;49.662;8.448;2023-06-26T02:05:13;100451.75;;;21.95;57.05
37238;BME280;23129;49.662;8.448;2023-06-26T02:07:42;100439.69;;;21.89;57.23
37238;BME280;23129;49.662;8.448;2023-06-26T02:10:11;100443.72;;;21.84;57.35
37238;BME280;23129;49.662;8.448;2023-06-26T02:12:41;100443.06;;;21.80;57.37
37238;BME280;23129;49.662;8.448;2023-06-26T02:15:11;100461.34;;;21.74;57.52
37238;BME280;23129;49.662;8.448;2023-06-26T02:17:40;100459.66;;;21.73;57.50
37238;BME280;23129;49.662;8.448;2023-06-26T02:20:10;100454.44;;;21.71;57.40
37238;BME280;23129;49.662;8.448;2023-06-26T02:22:40;100459.28;;;21.66;57.39
37238;BME280;23129;49.662;8.448;2023-06-26T02:25:09;100455.13;;;21.62;57.52
37238;BME280;23129;49.662;8.448;2023-06-26T02:27:41;100457.78;;;21.62;57.62
37238;BME280;23129;49.662;8.448;2023-06-26T02:30:12;100459.38;;;21.64;57.73
37238;BME280;23129;49.662;8.448;2023-06-26T02:32:40;100453.94;;;21.66;57.62
37238;BME280;23129;49.662;8.448;2023-06-26T02:35:09;100455.63;;;21.67;57.77
37238;BME280;23129;49.662;8.448;2023-06-26T02:37:41;100465.34;;;21.68;57.81
37238;BME280;23129;49.662;8.448;2023-06-26T02:40:10;100458.31;;;21.67;57.73
37238;BME280;23129;49.662;8.448;2023-06-26T02:42:42;100461.94;;;21.66;57.82
37238;BME280;23129;49.662;8.448;2023-06-26T02:45:11;100458.63;;;21.62;58.00
37238;BME280;23129;49.662;8.448;2023-06-26T02:47:40;100453.66;;;21.58;58.08
37238;BME280;23129;49.662;8.448;2023-06-26T02:50:10;100457.47;;;21.54;58.04
37238;BME280;23129;49.662;8.448;2023-06-26T02:52:59;100454.94;;;21.52;58.18
37238;BME280;23129;49.662;8.448;2023-06-26T02:55:28;100449.94;;;21.48;58.44
37238;BME280;23129;49.662;8.448;2023-06-26T02:57:58;100459.97;;;21.44;58.66
37238;BME280;23129;49.662;8.448;2023-06-26T03:00:27;100465.06;;;21.36;58.92
37238;BME280;23129;49.662;8.448;2023-06-26T03:03:00;100464.59;;;21.29;58.91
37238;BME280;23129;49.662;8.448;2023-06-26T03:05:29;100462.59;;;21.20;59.36
37238;BME280;23129;49.662;8.448;2023-06-26T03:07:59;100464.84;;;21.13;59.63
37238;BME280;23129;49.662;8.448;2023-06-26T03:10:28;100469.56;;;21.10;59.70
37238;BME280;23129;49.662;8.448;2023-06-26T03:12:57;100470.72;;;21.06;59.99
37238;BME280;23129;49.662;8.448;2023-06-26T03:15:26;100473.81;;;21.00;60.06
37238;BME280;23129;49.662;8.448;2023-06-26T03:17:55;100473.31;;;20.94;60.14
37238;BME280;23129;49.662;8.448;2023-06-26T03:20:27;100471.09;;;20.88;60.56
37238;BME280;23129;49.662;8.448;2023-06-26T03:22:57;100471.31;;;20.85;60.59
37238;BME280;23129;49.662;8.448;2023-06-26T03:25:26;100474.91;;;20.84;60.75
37238;BME280;23129;49.662;8.448;2023-06-26T03:28:18;100476.63;;;20.85;60.69
37238;BME280;23129;49.662;8.448;2023-06-26T03:30:47;100476.84;;;20.82;60.63
37238;BME280;23129;49.662;8.448;2023-06-26T03:33:17;100468.94;;;20.81;60.79
37238;BME280;23129;49.662;8.448;2023-06-26T03:35:46;100475.25;;;20.80;60.82
37238;BME280;23129;49.662;8.448;2023-06-26T03:38:15;100478.22;;;20.75;60.90
37238;BME280;23129;49.662;8.448;2023-06-26T03:40:45;100475.78;;;20.72;61.15
37238;BME280;23129;49.662;8.448;2023-06-26T03:43:14;100470.56;;;20.70;61.00
37238;BME280;23129;49.662;8.448;2023-06-26T03:45:50;100472.34;;;20.70;61.04
37238;BME280;23129;49.662;8.448;2023-06-26T03:48:19;100470.22;;;20.62;61.18
37238;BME280;23129;49.662;8.448;2023-06-26T03:50:47;100467.44;;;20.64;61.18
37238;BME280;23129;49.662;8.448;2023-06-26T03:53:16;100481.53;;;20.66;61.22
37238;BME280;23129;49.662;8.448;2023-06-26T03:55:45;100479.72;;;20.66;61.07
37238;BME280;23129;49.662;8.448;2023-06-26T03:58:13;100479.63;;;20.68;61.32
37238;BME280;23129;49.662;8.448;2023-06-26T04:00:42;100474.28;;;20.68;61.00
37238;BME280;23129;49.662;8.448;2023-06-26T04:03:12;100479.50;;;20.69;61.33
37238;BME280;23129;49.662;8.448;2023-06-26T04:05:41;100472.34;;;20.70;61.24
37238;BME280;23129;49.662;8.448;2023-06-26T04:08:10;100474.06;;;20.71;61.16
37238;BME280;23129;49.662;8.448;2023-06-26T04:10:38;100474.38;;;20.66;61.42
37238;BME280;23129;49.662;8.448;2023-06-26T04:13:07;100476.41;;;20.63;61.56
37238;BME280;23129;49.662;8.448;2023-06-26T04:15:35;100469.59;;;20.59;61.57
37238;BME280;23129;49.662;8.448;2023-06-26T04:18:04;100472.34;;;20.57;61.86
37238;BME280;23129;49.662;8.448;2023-06-26T04:20:39;100479.84;;;20.65;61.44
37238;BME280;23129;49.662;8.448;2023-06-26T04:23:07;100487.28;;;20.72;60.92
37238;BME280;23129;49.662;8.448;2023-06-26T04:25:35;100494.31;;;20.61;61.56
37238;BME280;23129;49.662;8.448;2023-06-26T04:28:05;100484.53;;;20.61;61.60
37238;BME280;23129;49.662;8.448;2023-06-26T04:30:34;100478.09;;;20.64;61.79
37238;BME280;23129;49.662;8.448;2023-06-26T04:33:02;100473.00;;;20.61;61.66
37238;BME280;23129;49.662;8.448;2023-06-26T04:35:31;100476.84;;;20.57;61.84
37238;BME280;23129;49.662;8.448;2023-06-26T04:38:05;100476.63;;;20.60;62.10
37238;BME280;23129;49.662;8.448;2023-06-26T04:40:34;100485.59;;;20.59;62.00
37238;BME280;23129;49.662;8.448;2023-06-26T04:43:02;100479.28;;;20.60;61.71
37238;BME280;23129;49.662;8.448;2023-06-26T04:45:31;100479.84;;;20.65;61.73
37238;BME280;23129;49.662;8.448;2023-06-26T04:48:00;100482.06;;;20.71;61.59
37238;BME280;23129;49.662;8.448;2023-06-26T04:50:29;100484.31;;;20.77;61.56
37238;BME280;23129;49.662;8.448;2023-06-26T04:52:58;100484.72;;;20.84;61.47
37238;BME280;23129;49.662;8.448;2023-06-26T04:55:28;100486.88;;;20.91;61.44
37238;BME280;23129;49.662;8.448;2023-06-26T04:57:57;100483.22;;;20.92;61.61
37238;BME280;23129;49.662;8.448;2023-06-26T05:00:26;100483.44;;;21.02;61.44
37238;BME280;23129;49.662;8.448;2023-06-26T05:02:55;100484.81;;;21.08;61.29
37238;BME280;23129;49.662;8.448;2023-06-26T05:05:28;100487.25;;;21.11;61.41
37238;BME280;23129;49.662;8.448;2023-06-26T05:07:57;100479.03;;;21.14;61.53
37238;BME280;23129;49.662;8.448;2023-06-26T05:10:27;100482.09;;;21.20;61.87
37238;BME280;23129;49.662;8.448;2023-06-26T05:12:56;100479.13;;;21.25;61.77
37238;BME280;23129;49.662;8.448;2023-06-26T05:15:24;100469.47;;;21.35;61.71
37238;BME280;23129;49.662;8.448;2023-06-26T05:17:53;100470.78;;;21.42;61.96
37238;BME280;23129;49.662;8.448;2023-06-26T05:20:22;100474.59;;;21.51;61.83
37238;BME280;23129;49.662;8.448;2023-06-26T05:22:50;100474.78;;;21.61;61.66
37238;BME280;23129;49.662;8.448;2023-06-26T05:25:20;100478.44;;;21.71;61.70
37238;BME280;23129;49.662;8.448;2023-06-26T05:27:51;100480.56;;;21.79;61.72
37238;BME280;23129;49.662;8.448;2023-06-26T05:30:21;100481.94;;;21.84;61.76
37238;BME280;23129;49.662;8.448;2023-06-26T05:32:53;100483.41;;;21.88;61.97
37238;BME280;23129;49.662;8.448;2023-06-26T05:35:22;100475.91;;;21.94;62.13
37238;BME280;23129;49.662;8.448;2023-06-26T05:37:51;100474.47;;;22.01;62.01
37238;BME280;23129;49.662;8.448;2023-06-26T05:40:20;100473.28;;;22.05;62.06
37238;BME280;23129;49.662;8.448;2023-06-26T05:42:51;100468.56;;;22.08;62.21
37238;BME280;23129;49.662;8.448;2023-06-26T05:45:20;100471.72;;;22.14;62.04
37238;BME280;23129;49.662;8.448;2023-06-26T05:47:48;100473.84;;;22.21;62.11
37238;BME280;23129;49.662;8.448;2023-06-26T05:50:19;100474.13;;;22.29;62.29
37238;BME280;23129;49.662;8.448;2023-06-26T05:52:48;100476.09;;;22.39;62.03
37238;BME280;23129;49.662;8.448;2023-06-26T05:55:17;100474.63;;;22.46;62.09
37238;BME280;23129;49.662;8.448;2023-06-26T05:57:47;100474.91;;;22.54;61.84
37238;BME280;23129;49.662;8.448;2023-06-26T06:00:18;100467.13;;;22.62;61.76
37238;BME280;23129;49.662;8.448;2023-06-26T06:02:46;100471.16;;;22.68;62.00
37238;BME280;23129;49.662;8.448;2023-06-26T06:05:15;100468.84;;;22.74;61.80
37238;BME280;23129;49.662;8.448;2023-06-26T06:07:43;100470.19;;;22.80;62.22
37238;BME280;23129;49.662;8.448;2023-06-26T06:10:12;100468.88;;;22.86;62.11
37238;BME280;23129;49.662;8.448;2023-06-26T06:12:41;100470.06;;;22.93;62.16
37238;BME280;23129;49.662;8.448;2023-06-26T06:15:09;100467.69;;;23.01;62.09
37238;BME280;23129;49.662;8.448;2023-06-26T06:17:39;100470.22;;;23.14;62.14
37238;BME280;23129;49.662;8.448;2023-06-26T06:20:09;100457.78;;;23.24;61.35
37238;BME280;23129;49.662;8.448;2023-06-26T06:22:37;100463.13;;;23.35;60.86
37238;BME280;23129;49.662;8.448;2023-06-26T06:25:06;100462.00;;;23.49;60.51
37238;BME280;23129;49.662;8.448;2023-06-26T06:27:35;100464.66;;;23.60;59.75
37238;BME280;23129;49.662;8.448;2023-06-26T06:30:04;100469.28;;;23.69;59.24
37238;BME280;23129;49.662;8.448;2023-06-26T06:32:35;100475.31;;;23.83;58.83
37238;BME280;23129;49.662;8.448;2023-06-26T06:35:06;100472.63;;;23.94;58.70
37238;BME280;23129;49.662;8.448;2023-06-26T06:37:37;100467.47;;;24.02;58.40
37238;BME280;23129;49.662;8.448;2023-06-26T06:40:08;100469.38;;;24.11;57.72
37238;BME280;23129;49.662;8.448;2023-06-26T06:42:37;100465.31;;;24.17;57.15
37238;BME280;23129;49.662;8.448;2023-06-26T06:45:06;100467.22;;;24.26;57.30
37238;BME280;23129;49.662;8.448;2023-06-26T06:47:35;100466.56;;;24.34;56.95
37238;BME280;23129;49.662;8.448;2023-06-26T06:50:06;100467.63;;;24.43;56.54
37238;BME280;23129;49.662;8.448;2023-06-26T06:52:39;100470.09;;;24.55;56.10
37238;BME280;23129;49.662;8.448;2023-06-26T06:55:09;100469.91;;;24.68;55.79
37238;BME280;23129;49.662;8.448;2023-06-26T06:57:38;100460.22;;;24.77;55.25
37238;BME280;23129;49.662;8.448;2023-06-26T07:00:09;100470.00;;;24.88;55.15
37238;BME280;23129;49.662;8.448;2023-06-26T07:02:40;100456.59;;;24.97;54.50
37238;BME280;23129;49.662;8.448;2023-06-26T07:05:10;100454.09;;;25.05;54.37
37238;BME280;23129;49.662;8.448;2023-06-26T07:07:39;100463.44;;;25.11;53.96
37238;BME280;23129;49.662;8.448;2023-06-26T07:10:10;100460.81;;;25.21;53.87
37238;BME280;23129;49.662;8.448;2023-06-26T07:12:39;100461.84;;;25.30;53.59
37238;BME280;23129;49.662;8.448;2023-06-26T07:15:08;100455.38;;;25.42;53.46
37238;BME280;23129;49.662;8.448;2023-06-26T07:17:37;100448.59;;;25.47;53.16
37238;BME280;23129;49.662;8.448;2023-06-26T07:20:07;100451.16;;;25.59;53.00
37238;BME280;23129;49.662;8.448;2023-06-26T07:22:39;100446.06;;;25.75;52.82
37238;BME280;23129;49.662;8.448;2023-06-26T07:25:07;100446.97;;;25.85;52.52
37238;BME280;23129;49.662;8.448;2023-06-26T07:27:37;100444.84;;;25.99;52.08
37238;BME280;23129;49.662;8.448;2023-06-26T07:30:06;100441.28;;;26.08;51.63
37238;BME280;23129;49.662;8.448;2023-06-26T07:32:36;100441.28;;;26.17;51.33
37238;BME280;23129;49.662;8.448;2023-06-26T07:35:05;100446.38;;;26.30;51.16
37238;BME280;23129;49.662;8.448;2023-06-26T07:37:34;100436.72;;;26.37;51.04
37238;BME280;23129;49.662;8.448;2023-06-26T07:40:05;100450.75;;;26.51;50.47
37238;BME280;23129;49.662;8.448;2023-06-26T07:42:34;100446.59;;;26.66;50.16
37238;BME280;23129;49.662;8.448;2023-06-26T07:45:02;100453.31;;;26.90;49.99
37238;BME280;23129;49.662;8.448;2023-06-26T07:47:37;100457.91;;;27.35;49.45
37238;BME280;23129;49.662;8.448;2023-06-26T07:50:05;100461.34;;;27.72;49.19
37238;BME280;23129;49.662;8.448;2023-06-26T07:52:34;100455.25;;;28.42;47.40
37238;BME280;23129;49.662;8.448;2023-06-26T07:55:05;100453.31;;;29.21;46.43
37238;BME280;23129;49.662;8.448;2023-06-26T07:57:33;100453.50;;;29.86;45.17
37238;BME280;23129;49.662;8.448;2023-06-26T08:00:03;100449.75;;;30.53;44.13
37238;BME280;23129;49.662;8.448;2023-06-26T08:02:40;100457.72;;;31.10;42.90
37238;BME280;23129;49.662;8.448;2023-06-26T08:05:08;100447.28;;;31.61;42.55
37238;BME280;23129;49.662;8.448;2023-06-26T08:07:37;100455.47;;;32.07;41.59
37238;BME280;23129;49.662;8.448;2023-06-26T08:10:08;100453.09;;;32.42;40.50
37238;BME280;23129;49.662;8.448;2023-06-26T08:12:37;100462.25;;;32.49;39.83
37238;BME280;23129;49.662;8.448;2023-06-26T08:15:08;100456.06;;;32.55;39.70
37238;BME280;23129;49.662;8.448;2023-06-26T08:17:38;100459.16;;;32.82;39.19
37238;BME280;23129;49.662;8.448;2023-06-26T08:20:08;100460.03;;;33.12;38.71
37238;BME280;23129;49.662;8.448;2023-06-26T08:22:36;100463.25;;;33.37;38.25
37238;BME280;23129;49.662;8.448;2023-06-26T08:25:07;100453.66;;;33.41;38.32
37238;BME280;23129;49.662;8.448;2023-06-26T08:27:36;100456.81;;;33.59;37.75
37238;BME280;23129;49.662;8.448;2023-06-26T08:30:06;100461.50;;;33.87;37.50
37238;BME280;23129;49.662;8.448;2023-06-26T08:32:34;100458.84;;;33.72;37.43
37238;BME280;23129;49.662;8.448;2023-06-26T08:35:04;100464.88;;;33.16;37.52
37238;BME280;23129;49.662;8.448;2023-06-26T08:37:32;100468.16;;;32.67;37.96
37238;BME280;23129;49.662;8.448;2023-06-26T08:40:01;100468.00;;;32.31;38.38
37238;BME280;23129;49.662;8.448;2023-06-26T08:42:31;100459.53;;;32.49;37.98
37238;BME280;23129;49.662;8.448;2023-06-26T08:45:00;100472.38;;;32.70;37.50
37238;BME280;23129;49.662;8.448;2023-06-26T08:47:30;100466.28;;;32.83;37.32
37238;BME280;23129;49.662;8.448;2023-06-26T08:50:08;100453.91;;;33.25;36.85
37238;BME280;23129;49.662;8.448;2023-06-26T08:52:40;100466.97;;;33.66;36.26
37238;BME280;23129;49.662;8.448;2023-06-26T08:55:10;100466.34;;;33.92;35.44
37238;BME280;23129;49.662;8.448;2023-06-26T08:57:42;100474.19;;;33.58;35.84
37238;BME280;23129;49.662;8.448;2023-06-26T09:00:14;100469.53;;;33.23;36.31
37238;BME280;23129;49.662;8.448;2023-06-26T09:02:44;100471.53;;;32.99;36.69
37238;BME280;23129;49.662;8.448;2023-06-26T09:05:13;100468.34;;;32.81;36.94
37238;BME280;23129;49.662;8.448;2023-06-26T09:07:42;100465.88;;;32.56;36.99
37238;BME280;23129;49.662;8.448;2023-06-26T09:10:11;100466.28;;;32.83;36.55
37238;BME280;23129;49.662;8.448;2023-06-26T09:12:41;100464.84;;;33.31;35.79
37238;BME280;23129;49.662;8.448;2023-06-26T09:15:15;100475.34;;;33.71;35.01
37238;BME280;23129;49.662;8.448;2023-06-26T09:17:44;100458.78;;;33.87;34.29
37238;BME280;23129;49.662;8.448;2023-06-26T09:20:13;100473.94;;;33.96;33.80
37238;BME280;23129;49.662;8.448;2023-06-26T09:22:43;100472.03;;;34.12;33.60
37238;BME280;23129;49.662;8.448;2023-06-26T09:25:15;100478.63;;;34.24;33.28
37238;BME280;23129;49.662;8.448;2023-06-26T09:27:46;100481.38;;;34.30;33.16
37238;BME280;23129;49.662;8.448;2023-06-26T09:30:17;100481.03;;;34.40;33.19
37238;BME280;23129;49.662;8.448;2023-06-26T09:32:46;100476.09;;;34.50;32.67
37238;BME280;23129;49.662;8.448;2023-06-26T09:35:15;100483.44;;;34.78;32.54
37238;BME280;23129;49.662;8.448;2023-06-26T09:37:44;100476.94;;;35.14;32.12
37238;BME280;23129;49.662;8.448;2023-06-26T09:40:14;100477.47;;;35.37;31.54
37238;BME280;23129;49.662;8.448;2023-06-26T09:42:43;100479.09;;;35.25;31.65
37238;BME280;23129;49.662;8.448;2023-06-26T09:45:20;100488.78;;;34.99;31.96
37238;BME280;23129;49.662;8.448;2023-06-26T09:47:49;100490.16;;;34.82;32.31
37238;BME280;23129;49.662;8.448;2023-06-26T09:50:24;100483.84;;;34.75;32.48
37238;BME280;23129;49.662;8.448;2023-06-26T09:52:55;100478.25;;;34.55;32.44
37238;BME280;23129;49.662;8.448;2023-06-26T09:55:24;100486.84;;;34.30;32.70
37238;BME280;23129;49.662;8.448;2023-06-26T09:57:57;100482.75;;;34.41;32.67
37238;BME280;23129;49.662;8.448;2023-06-26T10:00:33;100481.81;;;34.34;32.60
37238;BME280;23129;49.662;8.448;2023-06-26T10:03:01;100498.19;;;33.91;33.34
37238;BME280;23129;49.662;8.448;2023-06-26T10:05:31;100495.13;;;33.43;33.83
37238;BME280;23129;49.662;8.448;2023-06-26T10:07:59;100499.28;;;33.09;34.28
37238;BME280;23129;49.662;8.448;2023-06-26T10:10:29;100507.22;;;32.81;34.82
37238;BME280;23129;49.662;8.448;2023-06-26T10:13:01;100503.66;;;32.66;34.66
37238;BME280;23129;49.662;8.448;2023-06-26T10:15:33;100492.78;;;32.66;34.89
37238;BME280;23129;49.662;8.448;2023-06-26T10:18:03;100496.06;;;32.61;34.84
37238;BME280;23129;49.662;8.448;2023-06-26T10:20:33;100495.09;;;32.54;34.93
37238;BME280;23129;49.662;8.448;2023-06-26T10:23:03;100502.81;;;32.65;34.72
37238;BME280;23129;49.662;8.448;2023-06-26T10:25:37;100503.38;;;32.76;35.16
37238;BME280;23129;49.662;8.448;2023-06-26T10:28:10;100506.56;;;32.64;34.96
37238;BME280;23129;49.662;8.448;2023-06-26T10:30:43;100508.63;;;32.39;35.09
37238;BME280;23129;49.662;8.448;2023-06-26T10:33:15;100506.72;;;32.25;35.36
37238;BME280;23129;49.662;8.448;2023-06-26T10:35:45;100504.25;;;32.15;35.55
37238;BME280;23129;49.662;8.448;2023-06-26T10:38:14;100492.84;;;32.20;35.28
37238;BME280;23129;49.662;8.448;2023-06-26T10:40:44;100494.03;;;32.40;35.30
37238;BME280;23129;49.662;8.448;2023-06-26T10:43:14;100493.25;;;32.69;34.82
37238;BME280;23129;49.662;8.448;2023-06-26T10:45:46;100497.94;;;32.76;35.00
37238;BME280;23129;49.662;8.448;2023-06-26T10:48:20;100493.34;;;32.61;35.00
37238;BME280;23129;49.662;8.448;2023-06-26T10:50:50;100489.16;;;32.73;34.95
37238;BME280;23129;49.662;8.448;2023-06-26T10:53:23;100488.88;;;33.28;34.44
37238;BME280;23129;49.662;8.448;2023-06-26T10:55:58;100482.94;;;33.54;34.07
37238;BME280;23129;49.662;8.448;2023-06-26T10:58:33;100480.41;;;33.74;33.86
37238;BME280;23129;49.662;8.448;2023-06-26T11:01:30;100467.94;;;34.50;33.04
37238;BME280;23129;49.662;8.448;2023-06-26T11:04:09;100474.13;;;35.01;32.62
37238;BME280;23129;49.662;8.448;2023-06-26T11:06:39;100464.25;;;35.48;31.69
37238;BME280;23129;49.662;8.448;2023-06-26T11:09:10;100472.97;;;35.78;31.47
37238;BME280;23129;49.662;8.448;2023-06-26T11:11:59;100468.44;;;36.11;31.29
37238;BME280;23129;49.662;8.448;2023-06-26T11:14:32;100466.50;;;36.25;31.00
37238;BME280;23129;49.662;8.448;2023-06-26T11:17:06;100468.63;;;36.63;30.23
37238;BME280;23129;49.662;8.448;2023-06-26T11:19:34;100467.31;;;36.86;29.77
37238;BME280;23129;49.662;8.448;2023-06-26T11:22:03;100466.19;;;37.13;29.66
37238;BME280;23129;49.662;8.448;2023-06-26T11:24:33;100467.28;;;37.44;29.52
37238;BME280;23129;49.662;8.448;2023-06-26T11:27:04;100476.88;;;37.66;29.37
37238;BME280;23129;49.662;8.448;2023-06-26T11:29:33;100471.25;;;37.86;28.82
37238;BME280;23129;49.662;8.448;2023-06-26T11:32:06;100476.63;;;38.06;28.32
37238;BME280;23129;49.662;8.448;2023-06-26T11:34:34;100473.16;;;37.54;28.71
37238;BME280;23129;49.662;8.448;2023-06-26T11:37:05;100478.25;;;36.86;29.35
37238;BME280;23129;49.662;8.448;2023-06-26T11:39:35;100477.03;;;36.35;29.88
37238;BME280;23129;49.662;8.448;2023-06-26T11:42:05;100488.16;;;36.07;29.87
37238;BME280;23129;49.662;8.448;2023-06-26T11:44:40;100480.13;;;35.92;30.37
37238;BME280;23129;49.662;8.448;2023-06-26T11:47:14;100488.47;;;35.57;30.20
37238;BME280;23129;49.662;8.448;2023-06-26T11:49:44;100483.50;;;35.26;30.41
37238;BME280;23129;49.662;8.448;2023-06-26T11:52:13;100483.44;;;35.61;30.39
37238;BME280;23129;49.662;8.448;2023-06-26T11:54:43;100486.50;;;36.06;29.40
37238;BME280;23129;49.662;8.448;2023-06-26T11:57:14;100484.38;;;36.21;28.99
37238;BME280;23129;49.662;8.448;2023-06-26T11:59:44;100485.59;;;35.85;29.39
37238;BME280;23129;49.662;8.448;2023-06-26T12:02:15;100483.34;;;35.48;29.55
37238;BME280;23129;49.662;8.448;2023-06-26T12:04:45;100476.28;;;35.12;30.01
37238;BME280;23129;49.662;8.448;2023-06-26T12:07:14;100470.06;;;34.83;30.18
37238;BME280;23129;49.662;8.448;2023-06-26T12:09:44;100480.38;;;34.60;30.26
37238;BME280;23129;49.662;8.448;2023-06-26T12:12:16;100487.56;;;34.46;30.36
37238;BME280;23129;49.662;8.448;2023-06-26T12:14:46;100486.38;;;34.27;30.42
37238;BME280;23129;49.662;8.448;2023-06-26T12:17:16;100475.84;;;34.45;30.44
37238;BME280;23129;49.662;8.448;2023-06-26T12:19:47;100489.72;;;34.50;30.30
37238;BME280;23129;49.662;8.448;2023-06-26T12:22:17;100493.13;;;34.31;30.18
37238;BME280;23129;49.662;8.448;2023-06-26T12:24:47;100487.97;;;34.15;30.30
37238;BME280;23129;49.662;8.448;2023-06-26T12:27:18;100491.56;;;34.43;30.16
37238;BME280;23129;49.662;8.448;2023-06-26T12:29:50;100483.66;;;35.18;29.35
37238;BME280;23129;49.662;8.448;2023-06-26T12:32:22;100483.69;;;35.79;28.15
37238;BME280;23129;49.662;8.448;2023-06-26T12:34:51;100498.63;;;35.97;27.98
37238;BME280;23129;49.662;8.448;2023-06-26T12:37:20;100479.72;;;36.02;28.08
37238;BME280;23129;49.662;8.448;2023-06-26T12:39:50;100482.69;;;36.07;27.44
37238;BME280;23129;49.662;8.448;2023-06-26T12:42:20;100482.69;;;36.14;27.57
37238;BME280;23129;49.662;8.448;2023-06-26T12:44:49;100478.50;;;36.31;26.74
37238;BME280;23129;49.662;8.448;2023-06-26T12:47:19;100473.44;;;36.61;26.54
37238;BME280;23129;49.662;8.448;2023-06-26T12:49:51;100481.38;;;36.89;25.78
37238;BME280;23129;49.662;8.448;2023-06-26T12:52:20;100493.19;;;36.83;25.37
37238;BME280;23129;49.662;8.448;2023-06-26T12:54:53;100504.09;;;36.76;25.47
37238;BME280;23129;49.662;8.448;2023-06-26T12:57:23;100483.91;;;36.84;25.24
37238;BME280;23129;49.662;8.448;2023-06-26T12:59:52;100498.19;;;37.06;25.36
37238;BME280;23129;49.662;8.448;2023-06-26T13:02:21;100488.88;;;37.20;25.13
37238;BME280;23129;49.662;8.448;2023-06-26T13:04:51;100488.56;;;37.42;24.45
37238;BME280;23129;49.662;8.448;2023-06-26T13:07:20;100478.91;;;37.33;24.53